Time;durP1;ratioP1;P1;durP2;ratioP2;P2;SDS_P1;SDS_P2;PMS_P1;PMS_P2;Temp;Humidity;BMP_temperature;BMP_pressure;BME280_temperature;BME280_humidity;BME280_pressure;Samples;Min_cycle;Max_cycle;Signal;HPM_P1;HPM_P2
2023/03/14 00:01:32;;;;;;;3.17;0.70;;;;;;;16.68;55.33;95130.28;10422672;28;20076;-35
2023/03/14 00:06:34;;;;;;;1.07;0.53;;;;;;;16.65;52.19;95145.50;10416272;28;20087;-34
2023/03/14 00:11:35;;;;;;;2.30;0.55;;;;;;;16.65;51.66;95177.50;10423042;28;20371;-34
2023/03/14 00:16:35;;;;;;;0.95;0.52;;;;;;;16.65;51.13;95188.47;10424425;28;20104;-35
2023/03/14 00:21:35;;;;;;;1.73;0.77;;;;;;;16.58;51.35;95217.22;10418126;28;20387;-34
2023/03/14 00:26:36;;;;;;;0.57;0.37;;;;;;;16.63;51.07;95225.53;10422765;28;20417;-33
2023/03/14 00:31:36;;;;;;;1.80;0.87;;;;;;;16.63;50.97;95220.47;10422232;28;20036;-34
2023/03/14 00:36:37;;;;;;;0.93;0.40;;;;;;;16.63;50.50;95202.78;10431178;28;20316;-34
2023/03/14 00:41:37;;;;;;;3.17;0.60;;;;;;;16.63;50.67;95190.16;10415907;28;20037;-32
2023/03/14 00:46:37;;;;;;;2.17;0.47;;;;;;;16.62;51.31;95200.31;10429943;28;20083;-34
2023/03/14 00:51:38;;;;;;;2.03;1.00;;;;;;;16.63;50.89;95187.63;10427219;28;20037;-35
2023/03/14 00:56:38;;;;;;;1.53;0.60;;;;;;;16.63;50.58;95176.72;10421721;28;20033;-35
2023/03/14 01:01:39;;;;;;;1.00;0.43;;;;;;;16.64;55.94;95171.63;10428676;28;20282;-35
2023/03/14 01:06:40;;;;;;;4.45;1.00;;;;;;;16.70;59.66;95142.91;10430246;28;20458;-33
2023/03/14 01:11:40;;;;;;;3.63;0.97;;;;;;;16.74;59.61;95145.34;10430646;28;20025;-34
2023/03/14 01:16:41;;;;;;;4.80;1.27;;;;;;;16.69;59.65;95144.56;10424058;28;20018;-34
2023/03/14 01:21:41;;;;;;;0.50;0.50;;;;;;;16.64;52.58;95160.69;10427072;28;20303;-34
2023/03/14 01:26:41;;;;;;;2.00;0.80;;;;;;;16.65;51.67;95185.94;10430215;28;20711;-34
2023/03/14 01:31:43;;;;;;;2.60;0.60;;;;;;;16.64;51.54;95186.78;10439041;28;20029;-34
2023/03/14 01:36:43;;;;;;;1.55;0.60;;;;;;;16.65;52.04;95177.50;10438229;28;20025;-35
2023/03/14 01:41:44;;;;;;;1.50;0.47;;;;;;;16.62;50.91;95173.34;10427478;28;20060;-34
2023/03/14 01:46:45;;;;;;;1.00;0.45;;;;;;;16.62;50.81;95153.13;10427665;28;20048;-34
2023/03/14 01:52:09;;;;;;;0.77;0.50;;;;;;;16.63;51.52;95179.22;10425033;28;20565;-35
2023/03/14 01:57:10;;;;;;;1.05;0.50;;;;;;;16.62;50.93;95178.38;10426929;28;20032;-37
2023/03/14 02:02:12;;;;;;;0.90;0.60;;;;;;;16.61;50.76;95151.47;10421450;28;21596;-34
2023/03/14 02:07:19;;;;;;;1.98;0.60;;;;;;;16.61;50.50;95171.66;10428399;28;20421;-32
2023/03/14 02:12:30;;;;;;;0.88;0.50;;;;;;;16.62;50.72;95155.66;10418572;28;20041;-36
2023/03/14 02:18:04;;;;;;;0.75;0.35;;;;;;;16.57;51.09;95119.53;10410853;28;20037;-34
2023/03/14 02:23:41;;;;;;;3.58;1.60;;;;;;;16.71;59.57;95131.94;10431080;28;20048;-36
2023/03/14 02:28:43;;;;;;;3.03;0.60;;;;;;;16.69;59.72;95113.44;10436053;28;20088;-34
2023/03/14 02:33:43;;;;;;;3.70;0.88;;;;;;;16.72;59.24;95088.94;10429893;28;20044;-34
2023/03/14 02:38:52;;;;;;;1.02;0.80;;;;;;;16.65;53.42;95077.28;10426517;28;20033;-34
2023/03/14 02:43:53;;;;;;;1.58;1.40;;;;;;;16.64;51.79;95070.59;10420841;28;20028;-33
2023/03/14 02:49:03;;;;;;;0.85;0.40;;;;;;;16.57;51.59;95038.72;10421823;28;20038;-34
2023/03/14 02:54:05;;;;;;;0.88;0.43;;;;;;;16.60;51.33;95036.13;10420664;28;20080;-34
2023/03/14 02:59:06;;;;;;;1.33;0.50;;;;;;;16.59;51.56;95041.19;10422680;28;20029;-35
2023/03/14 03:04:17;;;;;;;2.55;0.82;;;;;;;16.58;51.34;95055.53;10422618;28;20029;-35
2023/03/14 03:09:20;;;;;;;1.25;0.40;;;;;;;16.62;50.90;95034.38;10437141;28;20033;-34
2023/03/14 03:14:20;;;;;;;2.67;1.00;;;;;;;16.62;51.39;95036.91;10434997;28;20040;-34
2023/03/14 03:19:20;;;;;;;0.85;0.40;;;;;;;16.55;50.99;95010.09;10440568;28;20287;-34
2023/03/14 03:24:21;;;;;;;1.55;0.43;;;;;;;16.61;50.67;95006.66;10441556;28;20043;-34
2023/03/14 03:29:22;;;;;;;2.10;0.33;;;;;;;16.63;50.67;95010.78;10429563;28;20041;-32
2023/03/14 03:34:23;;;;;;;0.75;0.40;;;;;;;16.62;50.94;95011.66;10431521;28;20348;-34
2023/03/14 03:39:26;;;;;;;4.15;2.40;;;;;;;16.70;59.39;94994.63;10420195;28;20516;-34
2023/03/14 03:44:26;;;;;;;2.00;0.70;;;;;;;16.72;59.97;94987.88;10415423;28;20025;-34
2023/03/14 03:49:31;;;;;;;3.05;0.60;;;;;;;16.73;59.44;94973.53;10438355;28;20029;-34
2023/03/14 03:54:31;;;;;;;1.65;0.50;;;;;;;16.68;53.25;94981.22;10425333;28;20025;-34
2023/03/14 03:59:32;;;;;;;1.50;0.60;;;;;;;16.66;52.08;94970.31;10424682;28;20040;-34
2023/03/14 04:04:33;;;;;;;1.23;0.20;;;;;;;16.65;52.09;94966.13;10434450;28;20037;-34
2023/03/14 04:09:37;;;;;;;0.73;0.50;;;;;;;16.66;51.63;94956.84;10425387;28;20021;-33
2023/03/14 04:14:55;;;;;;;0.65;0.32;;;;;;;16.64;51.35;94958.56;10425571;28;20467;-34
2023/03/14 04:19:56;;;;;;;0.50;0.30;;;;;;;16.64;51.46;94954.38;10431405;28;20063;-34
2023/03/14 04:25:06;;;;;;;2.13;0.60;;;;;;;16.63;51.25;94922.38;10433488;28;20079;-34
2023/03/14 04:30:10;;;;;;;1.08;0.30;;;;;;;16.64;51.16;94928.25;10436339;28;20083;-34
2023/03/14 04:35:37;;;;;;;1.48;0.32;;;;;;;16.63;51.01;94917.31;10423631;28;20497;-35
2023/03/14 04:40:43;;;;;;;1.20;0.40;;;;;;;16.61;51.23;94903.88;10444162;28;20628;-34
2023/03/14 04:45:44;;;;;;;0.80;0.30;;;;;;;16.63;51.46;94907.22;10435271;28;20040;-34
2023/03/14 04:50:47;;;;;;;1.77;0.40;;;;;;;16.67;51.13;94910.50;10438404;28;20037;-34
2023/03/14 04:55:52;;;;;;;2.63;0.98;;;;;;;16.71;59.01;94889.38;10429210;28;20064;-34
2023/03/14 05:00:54;;;;;;;8.68;1.00;;;;;;;16.67;59.27;94871.72;10428534;28;20029;-36
2023/03/14 05:06:06;;;;;;;1.13;0.70;;;;;;;16.70;58.76;94864.97;10417058;28;20038;-34
2023/03/14 05:11:27;;;;;;;2.78;0.93;;;;;;;16.73;57.82;94857.31;10415946;28;20143;-34
2023/03/14 05:16:54;;;;;;;2.67;1.00;;;;;;;16.69;55.95;94846.44;10410633;28;20038;-34
2023/03/14 05:22:04;;;;;;;3.92;0.80;;;;;;;16.73;53.85;94865.75;10430029;28;20038;-34
2023/03/14 05:27:18;;;;;;;3.58;0.60;;;;;;;16.75;53.10;94852.19;10453362;28;20116;-36
2023/03/14 05:32:41;;;;;;;1.08;0.60;;;;;;;16.73;52.17;94879.19;10414876;28;20049;-34
2023/03/14 05:37:54;;;;;;;3.00;0.60;;;;;;;16.74;52.24;94880.03;10434097;28;20033;-34
2023/03/14 05:43:14;;;;;;;0.60;0.60;;;;;;;16.77;51.76;94864.78;10438191;28;20049;-34
2023/03/14 05:48:14;;;;;;;1.02;0.60;;;;;;;16.75;51.67;94861.47;10428897;28;20037;-34
2023/03/14 05:53:31;;;;;;;1.67;0.75;;;;;;;16.75;51.27;94872.41;10448388;28;20415;-35
2023/03/14 05:58:49;;;;;;;1.80;0.43;;;;;;;16.76;51.49;94860.59;10448377;28;20112;-33
2023/03/14 06:04:00;;;;;;;0.57;0.32;;;;;;;16.74;50.74;94864.88;10425390;28;20068;-32
2023/03/14 06:09:01;;;;;;;11.40;3.78;;;;;;;16.72;52.70;94840.50;10437882;28;20146;-33
2023/03/14 06:14:03;;;;;;;11.85;3.67;;;;;;;16.80;58.54;94836.91;10443364;28;20036;-34
2023/03/14 06:19:03;;;;;;;16.83;3.70;;;;;;;16.81;59.29;94816.66;10434511;28;20327;-33
2023/03/14 06:24:04;;;;;;;18.10;2.15;;;;;;;16.73;54.24;94821.94;10440105;28;20031;-33
2023/03/14 06:29:09;;;;;;;19.75;3.22;;;;;;;16.67;52.64;94843.13;10442551;28;20037;-38
2023/03/14 06:34:09;;;;;;;15.05;3.05;;;;;;;16.60;53.20;94843.31;10426241;28;20036;-34
2023/03/14 06:39:10;;;;;;;9.18;1.83;;;;;;;16.63;50.92;94831.41;10428566;28;20513;-34
2023/03/14 06:44:15;;;;;;;9.32;2.08;;;;;;;16.67;51.22;94830.50;10430541;28;20119;-34
2023/03/14 06:49:15;;;;;;;8.25;2.38;;;;;;;16.66;50.96;94816.22;10429188;28;20034;-35
2023/03/14 06:54:16;;;;;;;5.93;1.73;;;;;;;16.67;50.86;94811.97;10438457;28;20112;-34
2023/03/14 06:59:17;;;;;;;7.57;2.03;;;;;;;16.66;50.95;94831.38;10449854;28;20024;-34
2023/03/14 07:04:21;;;;;;;11.13;2.67;;;;;;;16.65;50.95;94842.34;10429536;28;20115;-33
2023/03/14 07:09:22;;;;;;;6.32;1.80;;;;;;;16.51;50.49;94831.72;10422967;28;20523;-33
2023/03/14 07:14:29;;;;;;;4.90;1.77;;;;;;;16.64;50.73;94832.25;10435122;28;20111;-35
2023/03/14 07:19:30;;;;;;;7.30;2.55;;;;;;;16.63;50.43;94846.56;10441878;28;20029;-34
2023/03/14 07:24:30;;;;;;;5.40;1.92;;;;;;;16.62;50.44;94857.53;10438490;28;20119;-35
2023/03/14 07:29:30;;;;;;;11.38;3.85;;;;;;;16.68;57.18;94847.31;10431775;28;20041;-34
2023/03/14 07:34:32;;;;;;;8.52;3.65;;;;;;;16.70;57.63;94858.22;10439955;28;20106;-34
2023/03/14 07:39:34;;;;;;;8.68;2.47;;;;;;;16.69;57.56;94866.66;10446060;28;20040;-35
2023/03/14 07:44:39;;;;;;;7.20;2.70;;;;;;;16.67;56.23;94878.50;10435042;28;20029;-34
2023/03/14 07:49:39;;;;;;;13.90;3.00;;;;;;;16.67;56.87;94873.44;10432699;28;20052;-34
2023/03/14 07:54:42;;;;;;;6.83;3.63;;;;;;;16.69;57.12;94886.06;10448154;28;20240;-34
2023/03/14 07:59:42;;;;;;;7.05;2.30;;;;;;;16.67;54.86;94883.56;10444680;28;20120;-33
2023/03/14 08:04:43;;;;;;;6.10;2.67;;;;;;;16.68;56.49;94895.31;10430788;28;20040;-34
2023/03/14 08:09:43;;;;;;;6.35;2.80;;;;;;;16.68;56.68;94882.69;10447777;28;20511;-34
2023/03/14 08:14:43;;;;;;;9.10;3.43;;;;;;;16.69;56.79;94912.13;10437578;28;20492;-35
2023/03/14 08:19:44;;;;;;;3.83;1.85;;;;;;;16.67;54.75;94904.56;10430052;28;20086;-34
2023/03/14 08:24:44;;;;;;;7.07;3.03;;;;;;;16.70;57.11;94918.84;10428704;28;20073;-34
2023/03/14 08:29:44;;;;;;;2.53;1.50;;;;;;;16.67;52.93;94939.13;10440698;28;20041;-34
2023/03/14 08:34:45;;;;;;;7.73;3.00;;;;;;;16.69;57.20;94944.97;10436031;28;20048;-35
2023/03/14 08:39:46;;;;;;;2.38;1.52;;;;;;;16.66;52.32;94934.94;10429173;28;20029;-34
2023/03/14 08:44:46;;;;;;;6.32;3.05;;;;;;;16.70;56.96;94953.41;10443655;28;20136;-34
2023/03/14 08:49:46;;;;;;;10.30;2.90;;;;;;;16.70;57.25;94961.78;10431516;28;20672;-34
2023/03/14 08:54:47;;;;;;;5.27;2.93;;;;;;;16.70;57.47;94964.31;10445838;28;20484;-32
2023/03/14 08:59:47;;;;;;;5.63;2.63;;;;;;;16.70;55.98;94966.84;10446778;28;20333;-33
2023/03/14 09:04:49;;;;;;;4.93;2.55;;;;;;;16.67;55.71;94962.69;10426685;28;20033;-34
2023/03/14 09:09:49;;;;;;;3.22;1.83;;;;;;;16.67;52.10;94953.44;10443896;28;20030;-34
2023/03/14 09:14:50;;;;;;;4.40;2.33;;;;;;;16.66;51.71;94952.63;10438734;28;20512;-34
2023/03/14 09:19:50;;;;;;;5.13;1.90;;;;;;;16.67;51.37;94959.34;10441148;28;20496;-34
2023/03/14 09:24:51;;;;;;;6.27;2.40;;;;;;;16.67;51.27;94953.44;10438099;28;20398;-34
2023/03/14 09:29:51;;;;;;;6.03;2.13;;;;;;;16.61;51.48;94938.44;10439119;28;20300;-34
2023/03/14 09:34:51;;;;;;;3.43;1.83;;;;;;;16.67;50.98;94951.78;10441218;28;20515;-34
2023/03/14 09:39:52;;;;;;;3.93;2.10;;;;;;;16.67;52.54;94954.28;10453242;28;20299;-34
2023/03/14 09:45:06;;;;;;;3.90;1.93;;;;;;;16.64;50.65;94964.47;10445159;28;20037;-35
2023/03/14 09:50:14;;;;;;;3.35;1.60;;;;;;;16.63;50.99;94957.72;10440259;28;20304;-34
2023/03/14 09:55:17;;;;;;;3.80;1.90;;;;;;;16.65;50.87;94973.72;10452701;28;20049;-34
2023/03/14 10:00:20;;;;;;;6.03;2.50;;;;;;;16.68;56.39;94981.22;10449344;28;20510;-34
2023/03/14 10:05:22;;;;;;;5.85;3.03;;;;;;;16.70;56.85;94989.59;10431906;28;20029;-34
2023/03/14 10:10:25;;;;;;;4.35;2.40;;;;;;;16.71;56.86;94986.19;10433680;28;20033;-34
2023/03/14 10:15:32;;;;;;;4.13;2.20;;;;;;;16.70;56.03;95003.94;10443548;28;20034;-35
2023/03/14 10:20:39;;;;;;;5.35;2.67;;;;;;;16.64;54.11;95002.38;10437652;28;20025;-35
2023/03/14 10:25:45;;;;;;;2.30;1.50;;;;;;;16.64;51.23;94997.31;10449101;28;20021;-34
2023/03/14 10:30:45;;;;;;;2.85;1.95;;;;;;;16.64;52.36;94999.84;10451523;28;20086;-33
2023/03/14 10:35:52;;;;;;;3.08;1.92;;;;;;;16.63;52.18;95010.78;10450004;28;20090;-34
2023/03/14 10:40:54;;;;;;;1.65;1.30;;;;;;;16.64;52.08;95027.63;10434539;28;20111;-34
2023/03/14 10:45:57;;;;;;;2.80;1.45;;;;;;;16.64;51.24;95025.09;10433668;28;20044;-33
2023/03/14 10:51:10;;;;;;;2.17;1.25;;;;;;;16.64;50.86;95032.69;10438956;28;20064;-35
2023/03/14 10:56:13;;;;;;;4.35;2.28;;;;;;;16.64;52.15;95035.22;10430397;28;20029;-34
2023/03/14 11:01:32;;;;;;;2.65;1.63;;;;;;;16.65;51.12;95044.44;10437843;28;20041;-33
2023/03/14 11:06:35;;;;;;;1.65;1.10;;;;;;;16.65;50.48;95044.44;10417224;28;20182;-34
2023/03/14 11:11:39;;;;;;;1.60;1.10;;;;;;;16.65;50.09;95062.13;10435777;28;20033;-33
2023/03/14 11:16:57;;;;;;;3.05;2.35;;;;;;;16.67;56.73;95062.09;10440076;28;20039;-34
2023/03/14 11:22:37;;;;;;;4.55;2.40;;;;;;;16.71;57.07;95077.16;10436338;28;20029;-34
2023/03/14 11:27:57;;;;;;;4.10;2.45;;;;;;;16.70;56.85;95105.00;10426755;28;20460;-35
2023/03/14 11:33:07;;;;;;;4.38;2.22;;;;;;;16.69;56.04;95121.84;10424066;28;20026;-33
2023/03/14 11:38:24;;;;;;;2.67;2.13;;;;;;;16.70;54.85;95123.50;10423050;28;20033;-38
2023/03/14 11:43:40;;;;;;;4.10;2.30;;;;;;;16.71;56.60;95165.59;10433297;28;20035;-33
2023/03/14 11:48:49;;;;;;;4.90;2.67;;;;;;;16.70;56.70;95282.69;10426316;28;20033;-34
2023/03/14 11:54:14;;;;;;;4.50;2.38;;;;;;;16.69;55.13;95341.66;10424242;28;20056;-34
2023/03/14 11:59:20;;;;;;;4.22;2.20;;;;;;;16.70;56.80;95368.59;10433157;28;20055;-34
2023/03/14 12:04:34;;;;;;;3.30;2.30;;;;;;;16.72;56.93;95374.47;10428331;28;20385;-34
2023/03/14 12:09:35;;;;;;;4.82;2.55;;;;;;;16.73;56.49;95393.00;10443377;28;20431;-34
2023/03/14 12:14:44;;;;;;;3.97;2.45;;;;;;;16.73;57.21;95419.94;10430885;28;20032;-35
2023/03/14 12:19:46;;;;;;;4.05;2.60;;;;;;;16.72;57.37;95442.72;10428285;28;20512;-34
2023/03/14 12:25:18;;;;;;;5.68;2.70;;;;;;;16.71;57.47;95446.06;10429777;28;20112;-35
2023/03/14 12:30:30;;;;;;;3.95;2.50;;;;;;;16.71;57.10;95475.56;10415880;28;20041;-34
2023/03/14 12:35:41;;;;;;;4.85;2.97;;;;;;;16.72;57.72;95483.16;10436143;28;20699;-37
2023/03/14 12:40:54;;;;;;;3.78;2.25;;;;;;;16.74;57.55;95496.59;10422784;28;20469;-34
2023/03/14 12:46:16;;;;;;;3.72;2.63;;;;;;;16.72;57.28;95488.19;10433923;28;20032;-34
2023/03/14 12:51:20;;;;;;;3.05;2.15;;;;;;;16.72;56.91;95484.81;10420500;28;20124;-34
2023/03/14 12:56:25;;;;;;;3.55;2.42;;;;;;;16.71;57.32;95486.50;10422850;28;20116;-34
2023/03/14 13:01:26;;;;;;;5.00;1.80;;;;;;;16.70;55.29;95484.84;10426503;28;20098;-36
2023/03/14 13:06:53;;;;;;;4.82;2.10;;;;;;;16.69;53.40;95490.75;10430357;28;20021;-36
2023/03/14 13:12:10;;;;;;;4.45;2.05;;;;;;;16.72;52.70;95515.16;10430080;28;20033;-35
2023/03/14 13:17:12;;;;;;;1.75;1.20;;;;;;;16.73;51.68;95515.13;10429681;28;20473;-35
2023/03/14 13:22:21;;;;;;;5.53;2.42;;;;;;;16.73;57.46;95548.00;10443706;28;20066;-35
2023/03/14 13:27:23;;;;;;;3.85;2.13;;;;;;;16.69;52.96;95538.75;10434588;28;20110;-35
2023/03/14 13:32:28;;;;;;;19.88;2.75;;;;;;;16.71;53.06;95537.03;10444046;28;20114;-34
2023/03/14 13:37:29;;;;;;;10.93;2.15;;;;;;;16.72;53.18;95543.78;10439284;28;20041;-34
2023/03/14 13:42:29;;;;;;;10.27;3.13;;;;;;;16.70;53.40;95558.13;10453289;28;20381;-34
2023/03/14 13:47:30;;;;;;;18.30;2.47;;;;;;;16.72;55.67;95580.84;10432945;28;20463;-36
2023/03/14 13:52:35;;;;;;;10.93;2.60;;;;;;;16.70;58.13;95585.91;10428707;28;20052;-36
2023/03/14 13:57:47;;;;;;;7.93;2.58;;;;;;;16.74;59.03;95598.50;10426218;28;20036;-35
2023/03/14 14:02:48;;;;;;;9.43;2.65;;;;;;;16.72;58.11;95601.91;10389352;28;20054;-35
2023/03/14 14:07:52;;;;;;;7.22;2.38;;;;;;;16.69;57.25;95609.50;10375930;28;20037;-35
2023/03/14 14:13:01;;;;;;;5.85;1.90;;;;;;;16.73;56.74;95616.22;10385062;28;20048;-34
2023/03/14 14:18:08;;;;;;;6.85;2.15;;;;;;;16.73;56.69;95626.31;10379734;28;20054;-34
2023/03/14 14:23:14;;;;;;;6.72;1.88;;;;;;;16.74;53.88;95622.94;10381412;28;20030;-37
2023/03/14 14:28:36;;;;;;;3.95;2.45;;;;;;;16.73;55.73;95638.97;10375827;28;20038;-35
2023/03/14 14:33:52;;;;;;;4.95;2.10;;;;;;;16.74;53.86;95654.09;10373113;28;20038;-36
2023/03/14 14:39:04;;;;;;;6.05;2.78;;;;;;;16.69;56.37;95644.06;10377287;28;20125;-35
2023/03/14 14:44:05;;;;;;;8.02;2.67;;;;;;;16.74;55.90;95668.44;10382913;28;20512;-35
2023/03/14 14:49:12;;;;;;;9.38;2.38;;;;;;;16.73;56.05;95672.63;10388416;28;20124;-35
2023/03/14 14:54:34;;;;;;;4.40;2.05;;;;;;;16.72;55.38;95654.97;10371598;28;20037;-34
2023/03/14 14:59:44;;;;;;;4.07;2.00;;;;;;;16.62;54.83;95663.47;10375497;28;20050;-35
2023/03/14 15:04:46;;;;;;;14.23;4.30;;;;;;;16.69;52.91;95662.56;10375041;28;20501;-34
2023/03/14 15:09:47;;;;;;;9.63;2.45;;;;;;;16.75;57.81;95660.00;10391982;28;20516;-35
2023/03/14 15:14:47;;;;;;;6.37;2.63;;;;;;;16.82;58.25;95657.38;10369825;28;20048;-34
2023/03/14 15:19:48;;;;;;;11.95;2.53;;;;;;;16.81;57.58;95638.00;10376978;28;20042;-33
2023/03/14 15:24:48;;;;;;;6.07;2.47;;;;;;;16.81;56.46;95630.44;10376880;28;20065;-35
2023/03/14 15:29:49;;;;;;;7.50;2.67;;;;;;;16.79;54.20;95624.56;10379674;28;20038;-34
2023/03/14 15:34:49;;;;;;;4.88;2.33;;;;;;;16.79;53.43;95628.75;10368638;28;20111;-34
2023/03/14 15:39:50;;;;;;;6.97;2.50;;;;;;;16.80;57.25;95622.84;10378659;28;20096;-34
2023/03/14 15:44:50;;;;;;;5.50;2.23;;;;;;;16.77;53.42;95613.66;10381610;28;20460;-34
2023/03/14 15:49:51;;;;;;;7.30;2.72;;;;;;;16.75;55.35;95619.56;10368925;28;20413;-33
2023/03/14 15:54:51;;;;;;;11.27;1.90;;;;;;;16.76;57.51;95626.28;10396809;28;20029;-34
2023/03/14 15:59:52;;;;;;;4.83;2.17;;;;;;;16.77;57.72;95627.97;10371914;28;20042;-34
2023/03/14 16:04:53;;;;;;;7.43;1.95;;;;;;;16.78;57.57;95642.25;10390469;28;20532;-34
2023/03/14 16:09:54;;;;;;;7.30;2.17;;;;;;;16.77;56.90;95647.34;10381443;28;20312;-35
2023/03/14 16:14:54;;;;;;;5.50;1.80;;;;;;;16.76;57.30;95666.72;10373592;28;20030;-34
2023/03/14 16:19:54;;;;;;;5.43;1.90;;;;;;;16.75;57.14;95665.88;10373780;28;20050;-34
2023/03/14 16:24:55;;;;;;;6.32;1.73;;;;;;;16.75;57.71;95668.41;10376647;28;20046;-34
2023/03/14 16:29:55;;;;;;;8.07;2.13;;;;;;;16.73;57.80;95665.91;10382687;28;20508;-33
2023/03/14 16:34:56;;;;;;;6.00;1.97;;;;;;;16.78;57.73;95685.22;10386174;28;20045;-34
2023/03/14 16:39:56;;;;;;;3.65;2.13;;;;;;;16.77;57.52;95712.22;10388878;28;20284;-34
2023/03/14 16:44:56;;;;;;;7.67;1.90;;;;;;;16.76;57.68;95722.31;10381905;28;20038;-34
2023/03/14 16:49:57;;;;;;;3.20;2.00;;;;;;;16.77;56.89;95720.66;10378259;28;20099;-34
2023/03/14 16:54:57;;;;;;;3.63;1.77;;;;;;;16.77;57.64;95749.28;10391854;28;20179;-34
2023/03/14 16:59:58;;;;;;;8.17;2.13;;;;;;;16.75;56.49;95761.09;10381426;28;20036;-34
2023/03/14 17:04:58;;;;;;;3.53;1.40;;;;;;;16.77;56.68;95777.06;10377961;28;20041;-33
2023/03/14 17:09:58;;;;;;;5.40;1.77;;;;;;;16.77;54.88;95792.22;10384031;28;20319;-34
2023/03/14 17:14:59;;;;;;;5.72;1.63;;;;;;;16.73;57.55;95785.53;10384461;28;20500;-34
2023/03/14 17:19:59;;;;;;;2.80;1.50;;;;;;;16.71;57.00;95799.84;10382925;28;20041;-35
2023/03/14 17:25:00;;;;;;;12.17;1.90;;;;;;;16.77;58.95;95807.41;10385996;28;20061;-33
2023/03/14 17:30:02;;;;;;;5.95;2.10;;;;;;;16.75;58.30;95821.75;10374858;28;20041;-34
2023/03/14 17:35:02;;;;;;;12.07;2.47;;;;;;;16.76;58.69;95833.53;10377865;28;20065;-33
2023/03/14 17:40:04;;;;;;;6.13;2.00;;;;;;;16.76;58.77;95841.09;10372910;28;20497;-34
2023/03/14 17:45:05;;;;;;;11.82;2.20;;;;;;;16.76;59.09;95841.09;10377007;28;20030;-33
2023/03/14 17:50:06;;;;;;;9.13;2.22;;;;;;;16.83;57.99;95847.81;10384036;28;20057;-36
2023/03/14 17:55:07;;;;;;;3.10;1.40;;;;;;;16.90;52.75;95872.19;10378577;28;20132;-34
2023/03/14 18:00:10;;;;;;;3.85;1.30;;;;;;;16.85;51.91;95864.63;10377317;28;20056;-37
2023/03/14 18:05:11;;;;;;;4.85;1.50;;;;;;;16.90;53.80;95877.25;10378857;28;20057;-34
2023/03/14 18:10:13;;;;;;;4.28;2.03;;;;;;;16.90;51.22;95898.28;10373234;28;20200;-34
2023/03/14 18:15:13;;;;;;;4.78;1.30;;;;;;;16.88;50.96;95896.63;10372947;28;20037;-34
2023/03/14 18:20:14;;;;;;;3.20;1.95;;;;;;;16.89;50.73;95911.78;10376841;28;20591;-34
2023/03/14 18:25:14;;;;;;;7.72;1.60;;;;;;;16.90;50.67;95908.41;10375869;28;20038;-34
2023/03/14 18:30:15;;;;;;;5.38;1.40;;;;;;;16.81;51.55;95912.69;10372990;28;20416;-34
2023/03/14 18:35:16;;;;;;;5.65;1.52;;;;;;;16.83;50.43;95916.06;10370947;28;20030;-33
2023/03/14 18:40:18;;;;;;;3.67;1.13;;;;;;;16.89;50.42;95913.50;10391799;28;20393;-34
2023/03/14 18:45:18;;;;;;;8.77;1.73;;;;;;;16.88;52.96;95924.44;10389436;28;20061;-34
2023/03/14 18:50:19;;;;;;;6.70;2.27;;;;;;;16.90;51.43;95928.63;10376733;28;20037;-34
2023/03/14 18:55:19;;;;;;;3.38;1.23;;;;;;;16.92;50.49;95931.16;10390928;28;20329;-34
2023/03/14 19:00:20;;;;;;;7.25;1.90;;;;;;;16.95;56.56;95936.19;10388873;28;20041;-33
2023/03/14 19:05:21;;;;;;;11.50;3.05;;;;;;;16.98;57.13;95931.13;10374683;28;20045;-35
2023/03/14 19:10:21;;;;;;;7.03;1.83;;;;;;;17.00;55.83;95937.00;10384369;28;20037;-35
2023/03/14 19:15:21;;;;;;;5.23;1.73;;;;;;;16.96;51.68;95937.84;10386483;28;20663;-34
2023/03/14 19:20:23;;;;;;;2.67;1.07;;;;;;;16.93;50.78;95937.88;10383135;28;20032;-34
2023/03/14 19:25:23;;;;;;;1.90;1.00;;;;;;;16.91;50.67;95940.41;10378291;28;20412;-34
2023/03/14 19:30:24;;;;;;;3.33;1.23;;;;;;;16.90;51.06;95933.69;10376829;28;20044;-36
2023/03/14 19:35:24;;;;;;;2.50;0.90;;;;;;;16.89;51.11;95942.13;10373370;28;20310;-34
2023/03/14 19:40:24;;;;;;;5.60;1.30;;;;;;;16.90;51.34;95938.75;10360099;28;20421;-35
2023/03/14 19:45:30;;;;;;;5.15;1.33;;;;;;;16.90;51.37;95943.78;10368844;28;20374;-34
2023/03/14 19:50:32;;;;;;;2.63;1.37;;;;;;;16.91;51.07;95944.66;10370348;28;20034;-34
2023/03/14 19:55:33;;;;;;;2.47;1.08;;;;;;;16.95;50.67;95947.16;10374272;28;20458;-34
2023/03/14 20:00:33;;;;;;;2.88;1.10;;;;;;;16.92;50.18;95957.25;10380162;28;20036;-33
2023/03/14 20:05:38;;;;;;;1.77;0.80;;;;;;;16.95;50.48;95952.22;10372651;28;20395;-34
2023/03/14 20:10:38;;;;;;;5.30;1.00;;;;;;;16.96;50.71;95960.63;10373370;28;20040;-34
2023/03/14 20:15:40;;;;;;;6.37;1.60;;;;;;;16.99;54.29;95958.09;10374413;28;20072;-34
2023/03/14 20:20:40;;;;;;;13.82;2.33;;;;;;;17.02;56.71;95953.00;10375787;28;20277;-33
2023/03/14 20:25:41;;;;;;;4.70;1.60;;;;;;;17.06;56.51;95974.91;10374034;28;20033;-33
2023/03/14 20:30:42;;;;;;;4.53;1.20;;;;;;;17.00;52.59;95990.09;10379141;28;20052;-34
2023/03/14 20:35:43;;;;;;;4.00;1.27;;;;;;;16.98;52.70;95999.41;10352661;28;20042;-34
2023/03/14 20:40:46;;;;;;;4.15;1.20;;;;;;;16.98;51.76;96001.91;10371865;28;20416;-34
2023/03/14 20:45:54;;;;;;;3.30;1.20;;;;;;;16.98;51.79;96012.84;10373721;28;20084;-34
2023/03/14 20:50:55;;;;;;;5.90;1.42;;;;;;;16.97;51.76;96016.25;10374022;28;20042;-34
2023/03/14 20:55:56;;;;;;;5.60;1.50;;;;;;;16.97;52.17;96012.84;10378054;28;20030;-34
2023/03/14 21:00:57;;;;;;;5.68;1.15;;;;;;;16.96;52.09;96018.75;10374492;28;20030;-33
2023/03/14 21:05:57;;;;;;;5.03;1.40;;;;;;;16.94;51.73;96018.78;10382632;28;20045;-35
2023/03/14 21:10:57;;;;;;;3.67;1.50;;;;;;;16.91;52.67;96017.97;10381769;28;20069;-34
2023/03/14 21:15:59;;;;;;;3.17;1.37;;;;;;;16.95;51.88;96033.13;10377931;28;20096;-34
2023/03/14 21:21:00;;;;;;;3.38;1.02;;;;;;;16.95;52.06;96030.59;10394528;28;20493;-32
2023/03/14 21:26:01;;;;;;;4.73;1.13;;;;;;;16.97;52.38;96040.66;10386748;28;20451;-34
2023/03/14 21:31:12;;;;;;;4.18;1.23;;;;;;;16.98;52.92;96034.78;10390631;28;20121;-34
2023/03/14 21:36:12;;;;;;;3.13;1.40;;;;;;;17.04;56.35;96055.81;10387151;28;20560;-37
2023/03/14 21:41:13;;;;;;;3.43;1.10;;;;;;;17.06;55.96;96091.22;10387437;28;20038;-34
2023/03/14 21:46:13;;;;;;;3.60;1.30;;;;;;;17.01;53.93;96128.31;10386495;28;20410;-35
2023/03/14 21:51:13;;;;;;;5.63;1.25;;;;;;;16.96;53.46;96115.69;10391747;28;20069;-34
2023/03/14 21:56:14;;;;;;;2.67;1.13;;;;;;;16.94;52.66;96122.47;10385073;28;20413;-34
2023/03/14 22:01:14;;;;;;;3.50;0.90;;;;;;;16.94;51.76;96119.06;10386751;28;20087;-34
2023/03/14 22:06:15;;;;;;;1.70;1.10;;;;;;;16.97;51.51;96131.69;10389325;28;20033;-35
2023/03/14 22:11:15;;;;;;;3.43;1.13;;;;;;;16.94;51.21;96124.97;10398023;28;20441;-34
2023/03/14 22:16:15;;;;;;;2.63;0.90;;;;;;;16.52;53.84;96146.16;10384519;28;20046;-34
2023/03/14 22:21:16;;;;;;;3.73;0.90;;;;;;;16.80;52.23;96141.03;10394389;28;20120;-33
2023/03/14 22:26:16;;;;;;;3.53;1.02;;;;;;;16.87;52.23;96145.22;10390435;28;20295;-34
2023/03/14 22:31:17;;;;;;;2.42;1.00;;;;;;;16.89;51.35;96166.31;10383125;28;20041;-34
2023/03/14 22:36:17;;;;;;;2.17;0.80;;;;;;;16.90;51.34;96185.69;10392847;28;20038;-34
2023/03/14 22:41:17;;;;;;;0.80;0.60;;;;;;;16.89;51.32;96209.28;10389532;28;20033;-34
2023/03/14 22:46:18;;;;;;;1.47;0.67;;;;;;;16.91;51.08;96222.75;10383308;28;20041;-34
2023/03/14 22:51:18;;;;;;;2.87;1.40;;;;;;;16.94;56.95;96227.78;10392637;28;20037;-33
2023/03/14 22:56:19;;;;;;;2.28;0.80;;;;;;;16.94;57.75;96227.78;10396715;28;20447;-34
2023/03/14 23:01:19;;;;;;;6.78;1.10;;;;;;;16.94;57.04;96253.09;10398499;28;20028;-35
2023/03/14 23:06:20;;;;;;;1.60;0.70;;;;;;;16.94;52.49;96258.13;10393246;28;20041;-34
2023/03/14 23:11:20;;;;;;;2.42;0.90;;;;;;;16.91;51.61;96264.03;10394807;28;20034;-34
2023/03/14 23:16:22;;;;;;;1.10;0.60;;;;;;;16.88;51.50;96278.34;10397232;28;20046;-34
2023/03/14 23:21:24;;;;;;;1.55;0.77;;;;;;;16.88;51.43;96288.47;10393212;28;20173;-34
2023/03/14 23:26:25;;;;;;;0.65;0.57;;;;;;;16.89;51.20;96297.78;10391304;28;20037;-37
2023/03/14 23:31:26;;;;;;;1.67;0.52;;;;;;;16.77;51.24;96280.06;10387614;28;20026;-33